createdAt,value
2023-05-12T00:00:44.644Z,37.44
2023-05-12T00:01:44.662Z,37.43
2023-05-12T00:02:44.782Z,37.43
2023-05-12T00:03:44.867Z,37.44
2023-05-12T00:04:44.688Z,37.40
2023-05-12T00:05:44.661Z,37.39
2023-05-12T00:06:44.651Z,37.39
2023-05-12T00:07:44.646Z,37.41
2023-05-12T00:08:44.624Z,37.43
2023-05-12T00:09:44.654Z,37.41
2023-05-12T00:10:44.739Z,37.39
2023-05-12T00:11:44.637Z,37.39
2023-05-12T00:12:44.628Z,37.40
2023-05-12T00:13:44.669Z,37.40
2023-05-12T00:14:44.651Z,37.34
2023-05-12T00:15:44.663Z,37.35
2023-05-12T00:16:44.726Z,37.37
2023-05-12T00:17:44.688Z,37.36
2023-05-12T00:18:44.682Z,37.35
2023-05-12T00:19:44.640Z,37.37
2023-05-12T00:20:44.641Z,37.34
2023-05-12T00:21:44.641Z,37.37
2023-05-12T00:22:44.636Z,37.35
2023-05-12T00:23:44.646Z,37.33
2023-05-12T00:24:44.652Z,37.32
2023-05-12T00:25:44.660Z,37.33
2023-05-12T00:26:44.661Z,37.33
2023-05-12T00:27:44.675Z,37.34
2023-05-12T00:28:44.675Z,37.34
2023-05-12T00:29:44.687Z,37.34
2023-05-12T00:30:44.699Z,37.30
2023-05-12T00:31:44.705Z,37.32
2023-05-12T00:32:44.768Z,37.37
2023-05-12T00:33:44.713Z,37.33
2023-05-12T00:34:44.734Z,37.29
2023-05-12T00:35:44.972Z,37.33
2023-05-12T00:36:44.739Z,37.25
2023-05-12T00:37:44.748Z,37.30
2023-05-12T00:38:44.732Z,37.28
2023-05-12T00:39:44.714Z,37.23
2023-05-12T00:40:44.724Z,37.26
2023-05-12T00:41:44.719Z,37.22
2023-05-12T00:42:44.765Z,37.26
2023-05-12T00:43:44.721Z,37.23
2023-05-12T00:44:44.708Z,37.26
2023-05-12T00:45:44.751Z,37.28
2023-05-12T00:46:44.692Z,37.26
2023-05-12T00:47:44.758Z,37.29
2023-05-12T00:48:44.682Z,37.25
2023-05-12T00:49:44.677Z,37.19
2023-05-12T00:50:44.674Z,37.24
2023-05-12T00:51:44.680Z,37.19
2023-05-12T00:52:44.672Z,37.25
2023-05-12T00:53:49.770Z,37.19
2023-05-12T00:54:45.642Z,37.22
2023-05-12T00:55:44.613Z,37.18
2023-05-12T00:56:44.574Z,37.19
2023-05-12T00:57:44.531Z,37.19
2023-05-12T00:58:44.503Z,37.19
2023-05-12T00:59:44.459Z,37.22
2023-05-12T01:00:44.434Z,37.20
2023-05-12T01:01:44.422Z,37.20
2023-05-12T01:02:44.431Z,37.20
2023-05-12T01:03:44.344Z,37.20
2023-05-12T01:04:44.299Z,37.22
2023-05-12T01:05:44.249Z,37.22
2023-05-12T01:06:44.217Z,37.22
2023-05-12T01:07:44.173Z,37.22
2023-05-12T01:08:44.188Z,37.16
2023-05-12T01:09:44.165Z,37.19
2023-05-12T01:10:44.168Z,37.21
2023-05-12T01:11:44.136Z,37.17
2023-05-12T01:12:44.152Z,37.18
2023-05-12T01:13:44.149Z,37.18
2023-05-12T01:14:44.166Z,37.15
2023-05-12T01:15:44.124Z,37.16
2023-05-12T01:16:44.147Z,37.15
2023-05-12T01:17:44.193Z,37.14
2023-05-12T01:18:44.234Z,37.15
2023-05-12T01:19:44.098Z,37.11
2023-05-12T01:20:44.108Z,37.12
2023-05-12T01:21:44.095Z,37.11
2023-05-12T01:22:44.097Z,37.16
2023-05-12T01:23:44.092Z,37.08
2023-05-12T01:24:44.113Z,37.08
2023-05-12T01:25:44.102Z,37.12
2023-05-12T01:26:44.103Z,37.08
2023-05-12T01:27:44.105Z,37.12
2023-05-12T01:28:44.102Z,37.09
2023-05-12T01:29:44.094Z,37.07
2023-05-12T01:30:44.174Z,37.09
2023-05-12T01:31:44.141Z,37.12
2023-05-12T01:32:44.115Z,37.11
2023-05-12T01:33:44.085Z,37.12
2023-05-12T01:34:44.087Z,37.11
2023-05-12T01:35:44.096Z,37.07
2023-05-12T01:36:44.099Z,37.09
2023-05-12T01:37:44.101Z,37.04
2023-05-12T01:38:44.084Z,37.05
2023-05-12T01:39:44.124Z,37.04
2023-05-12T01:40:44.075Z,37.05
2023-05-12T01:41:44.086Z,37.03
2023-05-12T01:42:44.097Z,37.05
2023-05-12T01:43:44.090Z,37.08
2023-05-12T01:44:44.069Z,37.11
2023-05-12T01:45:44.067Z,37.04
2023-05-12T01:46:44.094Z,37.03
2023-05-12T01:47:44.151Z,37.06
2023-05-12T01:48:44.088Z,37.05
2023-05-12T01:49:44.087Z,37.04
2023-05-12T01:50:44.053Z,37.01
2023-05-12T01:51:44.068Z,37.01
2023-05-12T01:52:44.047Z,36.98
2023-05-12T01:53:44.053Z,37.04
2023-05-12T01:54:44.051Z,36.98
2023-05-12T01:55:44.053Z,36.98
2023-05-12T01:56:44.038Z,37.04
2023-05-12T01:57:44.058Z,37.02
2023-05-12T01:58:44.102Z,36.98
2023-05-12T01:59:44.093Z,36.97
2023-05-12T02:00:44.069Z,37.01
2023-05-12T02:01:44.135Z,37.01
2023-05-12T02:02:44.159Z,37.02
2023-05-12T02:03:44.221Z,37.02
2023-05-12T02:04:44.062Z,36.98
2023-05-12T02:05:44.072Z,36.96
2023-05-12T02:06:44.062Z,36.98
2023-05-12T02:07:44.063Z,36.98
2023-05-12T02:08:44.074Z,36.96
2023-05-12T02:09:44.083Z,36.98
2023-05-12T02:10:44.058Z,36.96
2023-05-12T02:11:44.122Z,36.94
2023-05-12T02:12:44.057Z,36.94
2023-05-12T02:13:44.048Z,36.94
2023-05-12T02:14:44.061Z,36.94
2023-05-12T02:15:44.049Z,36.98
2023-05-12T02:16:44.248Z,36.93
2023-05-12T02:17:44.107Z,36.90
2023-05-12T02:18:44.192Z,36.97
2023-05-12T02:19:44.053Z,36.93
2023-05-12T02:20:44.073Z,36.92
2023-05-12T02:21:44.056Z,36.96
2023-05-12T02:22:44.060Z,36.93
2023-05-12T02:23:44.043Z,36.94
2023-05-12T02:24:44.051Z,36.91
2023-05-12T02:25:44.058Z,36.87
2023-05-12T02:26:44.068Z,36.90
2023-05-12T02:27:44.068Z,36.87
2023-05-12T02:28:44.071Z,36.87
2023-05-12T02:29:44.070Z,36.88
2023-05-12T02:30:44.064Z,36.91
2023-05-12T02:31:44.125Z,36.90
2023-05-12T02:32:44.113Z,36.91
2023-05-12T02:33:44.146Z,36.84
2023-05-12T02:34:44.080Z,36.85
2023-05-12T02:35:44.092Z,36.83
2023-05-12T02:36:44.100Z,36.91
2023-05-12T02:37:44.096Z,36.85
2023-05-12T02:38:44.107Z,36.87
2023-05-12T02:39:44.105Z,36.89
2023-05-12T02:40:44.113Z,36.85
2023-05-12T02:41:44.122Z,36.83
2023-05-12T02:42:44.132Z,36.87
2023-05-12T02:43:44.167Z,36.82
2023-05-12T02:44:44.146Z,36.85
2023-05-12T02:45:44.265Z,36.83
2023-05-12T02:46:44.150Z,36.87
2023-05-12T02:47:44.203Z,36.83
2023-05-12T02:48:44.168Z,36.81
2023-05-12T02:49:44.151Z,36.79
2023-05-12T02:50:44.177Z,36.79
2023-05-12T02:51:44.173Z,36.82
2023-05-12T02:52:44.177Z,36.80
2023-05-12T02:53:44.182Z,36.85
2023-05-12T02:54:44.172Z,36.83
2023-05-12T02:55:44.173Z,36.83
2023-05-12T02:56:44.191Z,36.80
2023-05-12T02:57:44.190Z,36.83
2023-05-12T02:58:44.217Z,36.81
2023-05-12T02:59:44.207Z,36.82
2023-05-12T03:00:44.202Z,36.76
2023-05-12T03:01:44.220Z,36.76
2023-05-12T03:02:44.285Z,36.81
2023-05-12T03:03:44.470Z,36.79
2023-05-12T03:04:44.229Z,36.76
2023-05-12T03:05:44.217Z,36.76
2023-05-12T03:06:44.270Z,36.77
2023-05-12T03:07:44.222Z,36.77
2023-05-12T03:08:44.240Z,36.76
2023-05-12T03:09:44.226Z,36.73
2023-05-12T03:10:44.240Z,36.75
2023-05-12T03:11:44.238Z,36.73
2023-05-12T03:12:44.238Z,36.76
2023-05-12T03:13:44.238Z,36.73
2023-05-12T03:14:44.244Z,36.79
2023-05-12T03:15:44.223Z,36.76
2023-05-12T03:16:44.261Z,36.75
2023-05-12T03:17:44.263Z,36.75
2023-05-12T03:18:44.292Z,36.75
2023-05-12T03:19:44.245Z,36.75
2023-05-12T03:20:44.240Z,36.76
2023-05-12T03:21:44.248Z,36.73
2023-05-12T03:22:44.251Z,36.73
2023-05-12T03:23:44.263Z,36.70
2023-05-12T03:24:44.268Z,36.69
2023-05-12T03:25:44.266Z,36.73
2023-05-12T03:26:44.294Z,36.72
2023-05-12T03:27:44.296Z,36.72
2023-05-12T03:28:44.295Z,36.69
2023-05-12T03:29:44.308Z,36.73
2023-05-12T03:30:44.300Z,36.76
2023-05-12T03:31:44.383Z,36.69
2023-05-12T03:32:44.324Z,36.68
2023-05-12T03:33:44.323Z,36.69
2023-05-12T03:34:44.333Z,36.66
2023-05-12T03:35:44.355Z,36.65
2023-05-12T03:36:44.338Z,36.69
2023-05-12T03:37:44.377Z,36.68
2023-05-12T03:38:44.344Z,36.66
2023-05-12T03:39:44.385Z,36.69
2023-05-12T03:40:44.367Z,36.70
2023-05-12T03:41:44.393Z,36.66
2023-05-12T03:42:44.381Z,36.65
2023-05-12T03:43:44.409Z,36.66
2023-05-12T03:44:44.404Z,36.65
2023-05-12T03:45:44.429Z,36.63
2023-05-12T03:46:44.518Z,36.63
2023-05-12T03:47:44.557Z,36.65
2023-05-12T03:48:44.421Z,36.62
2023-05-12T03:49:44.447Z,36.63
2023-05-12T03:50:44.445Z,36.66
2023-05-12T03:51:44.462Z,36.61
2023-05-12T03:52:45.107Z,36.65
2023-05-12T03:53:44.475Z,36.62
2023-05-12T03:54:44.501Z,36.65
2023-05-12T03:55:44.486Z,36.61
2023-05-12T03:56:44.497Z,36.62
2023-05-12T03:57:44.504Z,36.65
2023-05-12T03:58:44.510Z,36.62
2023-05-12T03:59:44.521Z,36.59
2023-05-12T04:00:44.525Z,36.62
2023-05-12T04:01:44.577Z,36.65
2023-05-12T04:02:44.677Z,36.58
2023-05-12T04:03:44.614Z,36.61
2023-05-12T04:04:44.585Z,36.58
2023-05-12T04:05:44.591Z,36.54
2023-05-12T04:06:44.603Z,36.58
2023-05-12T04:07:44.612Z,36.62
2023-05-12T04:08:44.620Z,36.59
2023-05-12T04:09:44.604Z,36.63
2023-05-12T04:10:44.627Z,36.63
2023-05-12T04:11:44.627Z,36.58
2023-05-12T04:12:44.653Z,36.63
2023-05-12T04:13:44.652Z,36.54
2023-05-12T04:14:44.672Z,36.58
2023-05-12T04:15:44.682Z,36.56
2023-05-12T04:16:44.726Z,36.58
2023-05-12T04:17:44.722Z,36.58
2023-05-12T04:18:44.697Z,36.54
2023-05-12T04:19:44.692Z,36.56
2023-05-12T04:20:44.700Z,36.56
2023-05-12T04:21:44.710Z,36.55
2023-05-12T04:22:44.707Z,36.57
2023-05-12T04:23:44.712Z,36.52
2023-05-12T04:24:44.721Z,36.54
2023-05-12T04:25:44.735Z,36.51
2023-05-12T04:26:44.744Z,36.52
2023-05-12T04:27:44.770Z,36.52
2023-05-12T04:28:44.852Z,36.51
2023-05-12T04:29:44.818Z,36.54
2023-05-12T04:30:44.811Z,36.52
2023-05-12T04:31:44.874Z,36.52
2023-05-12T04:32:44.912Z,36.57
2023-05-12T04:33:46.920Z,36.50
2023-05-12T04:34:44.831Z,36.52
2023-05-12T04:35:44.806Z,36.47
2023-05-12T04:36:44.768Z,36.47
2023-05-12T04:37:44.745Z,36.50
2023-05-12T04:38:44.713Z,36.45
2023-05-12T04:39:44.686Z,36.48
2023-05-12T04:40:44.645Z,36.47
2023-05-12T04:41:44.614Z,36.48
2023-05-12T04:42:44.614Z,36.44
2023-05-12T04:44:44.535Z,36.46
2023-05-12T04:45:44.525Z,36.42
2023-05-12T04:46:44.496Z,36.46
2023-05-12T04:47:44.492Z,36.43
2023-05-12T04:48:44.415Z,36.44
2023-05-12T04:49:44.384Z,36.40
2023-05-12T04:50:44.360Z,36.42
2023-05-12T04:51:44.325Z,36.44
2023-05-12T04:52:44.296Z,36.42
2023-05-12T04:53:44.263Z,36.44
2023-05-12T04:54:44.251Z,36.40
2023-05-12T04:55:44.198Z,36.42
2023-05-12T04:56:44.179Z,36.36
2023-05-12T04:57:44.152Z,36.37
2023-05-12T04:58:44.097Z,36.43
2023-05-12T04:59:44.059Z,36.36
2023-05-12T05:00:44.042Z,36.38
2023-05-12T05:01:44.193Z,36.39
2023-05-12T05:02:44.009Z,36.42
2023-05-12T05:03:44.128Z,36.39
2023-05-12T05:04:43.882Z,36.36
2023-05-12T05:05:43.857Z,36.36
2023-05-12T05:06:43.815Z,36.33
2023-05-12T05:07:43.786Z,36.31
2023-05-12T05:08:43.736Z,36.39
2023-05-12T05:09:43.716Z,36.35
2023-05-12T05:10:43.666Z,36.34
2023-05-12T05:11:43.657Z,36.33
2023-05-12T05:12:43.600Z,36.39
2023-05-12T05:13:43.583Z,36.30
2023-05-12T05:14:43.540Z,36.33
2023-05-12T05:15:43.590Z,36.36
2023-05-12T05:16:43.486Z,36.32
2023-05-12T05:17:43.557Z,36.30
2023-05-12T05:18:43.438Z,36.38
2023-05-12T05:19:54.891Z,35.93
2023-05-12T05:20:45.610Z,35.36
2023-05-12T05:21:44.339Z,35.30
2023-05-12T05:22:43.308Z,34.97
2023-05-12T05:23:43.292Z,34.46
2023-05-12T05:24:43.267Z,34.83
2023-05-12T05:25:43.242Z,34.79
2023-05-12T05:26:43.215Z,34.93
2023-05-12T05:27:43.198Z,35.08
2023-05-12T05:28:43.165Z,36.18
2023-05-12T05:29:43.140Z,36.49
2023-05-12T05:30:44.006Z,37.78
2023-05-12T05:31:43.098Z,37.11
2023-05-12T05:32:43.068Z,37.44
2023-05-12T05:33:44.005Z,37.65
2023-05-12T05:34:43.026Z,37.59
2023-05-12T05:35:42.913Z,37.64
2023-05-12T05:36:42.882Z,38.03
2023-05-12T05:37:42.853Z,38.15
2023-05-12T05:38:42.802Z,38.13
2023-05-12T05:39:42.764Z,38.35
2023-05-12T05:40:53.086Z,38.46
2023-05-12T05:41:43.726Z,38.63
2023-05-12T05:42:42.644Z,38.82
2023-05-12T05:43:42.588Z,39.00
2023-05-12T05:44:42.544Z,39.00
2023-05-12T05:45:42.524Z,39.50
2023-05-12T05:46:42.480Z,39.29
2023-05-12T05:47:42.517Z,39.46
2023-05-12T05:48:42.374Z,39.59
2023-05-12T05:49:42.319Z,39.60
2023-05-12T05:50:42.300Z,39.74
2023-05-12T05:51:42.306Z,39.83
2023-05-12T05:52:42.310Z,40.12
2023-05-12T05:53:42.307Z,40.09
2023-05-12T05:54:42.298Z,40.22
2023-05-12T05:55:42.315Z,40.36
2023-05-12T05:56:42.311Z,40.27
2023-05-12T05:57:42.310Z,40.32
2023-05-12T05:58:42.302Z,40.54
2023-05-12T05:59:42.302Z,40.64
2023-05-12T06:00:42.294Z,40.94
2023-05-12T06:01:42.328Z,40.88
2023-05-12T06:02:42.481Z,41.14
2023-05-12T06:03:42.363Z,41.09
2023-05-12T06:04:42.276Z,41.12
2023-05-12T06:05:42.342Z,41.19
2023-05-12T06:06:42.253Z,41.20
2023-05-12T06:07:42.303Z,41.15
2023-05-12T06:08:42.239Z,41.40
2023-05-12T06:09:42.229Z,41.50
2023-05-12T06:10:42.242Z,41.65
2023-05-12T06:11:42.196Z,41.64
2023-05-12T06:12:42.186Z,41.81
2023-05-12T06:13:42.184Z,42.19
2023-05-12T06:14:42.155Z,41.98
2023-05-12T06:15:42.134Z,42.24
2023-05-12T06:16:42.189Z,42.39
2023-05-12T06:17:42.150Z,42.72
2023-05-12T06:18:42.139Z,42.52
2023-05-12T06:19:42.084Z,42.82
2023-05-12T06:20:42.614Z,41.99
2023-05-12T06:21:42.065Z,42.47
2023-05-12T06:22:42.079Z,41.83
2023-05-12T06:23:42.044Z,41.24
2023-05-12T06:24:42.035Z,41.28
2023-05-12T06:25:42.080Z,41.27
2023-05-12T06:26:42.091Z,41.18
2023-05-12T06:27:42.012Z,41.19
2023-05-12T06:28:42.012Z,41.06
2023-05-12T06:29:42.002Z,40.99
2023-05-12T06:30:42.033Z,40.66
2023-05-12T06:31:42.029Z,40.61
2023-05-12T06:32:42.032Z,40.45
2023-05-12T06:33:41.960Z,40.44
2023-05-12T06:34:42.001Z,40.11
2023-05-12T06:35:41.943Z,40.01
2023-05-12T06:36:41.940Z,39.67
2023-05-12T06:37:41.913Z,39.55
2023-05-12T06:38:41.918Z,39.41
2023-05-12T06:39:41.848Z,39.37
2023-05-12T06:40:41.857Z,39.22
2023-05-12T06:41:41.793Z,39.16
2023-05-12T06:42:41.791Z,39.00
2023-05-12T06:43:41.741Z,38.92
2023-05-12T06:44:42.467Z,38.85
2023-05-12T06:45:41.708Z,38.90
2023-05-12T06:46:41.714Z,38.82
2023-05-12T06:47:41.728Z,38.72
2023-05-12T06:48:41.650Z,38.59
2023-05-12T06:49:41.615Z,38.49
2023-05-12T06:50:41.629Z,38.37
2023-05-12T06:51:41.574Z,38.34
2023-05-12T06:52:41.593Z,38.30
2023-05-12T06:53:41.548Z,38.21
2023-05-12T06:54:41.539Z,38.09
2023-05-12T06:55:41.502Z,37.84
2023-05-12T06:56:41.493Z,37.75
2023-05-12T06:57:41.478Z,37.64
2023-05-12T06:58:41.464Z,37.57
2023-05-12T06:59:41.426Z,37.56
2023-05-12T07:00:41.407Z,37.45
2023-05-12T07:01:41.441Z,37.43
2023-05-12T07:02:41.448Z,37.26
2023-05-12T07:03:41.484Z,37.19
2023-05-12T07:04:41.387Z,36.92
2023-05-12T07:05:41.461Z,36.86
2023-05-12T07:06:41.523Z,36.70
2023-05-12T07:07:41.364Z,36.52
2023-05-12T07:08:41.368Z,36.48
2023-05-12T07:09:41.363Z,36.27
2023-05-12T07:10:41.377Z,36.18
2023-05-12T07:11:41.342Z,36.08
2023-05-12T07:12:41.380Z,36.02
2023-05-12T07:13:41.338Z,35.94
2023-05-12T07:14:41.420Z,35.90
2023-05-12T07:15:41.364Z,35.83
2023-05-12T07:16:41.356Z,36.11
2023-05-12T07:17:41.390Z,36.03
2023-05-12T07:18:41.368Z,35.96
2023-05-12T07:19:41.327Z,35.88
2023-05-12T07:20:41.336Z,35.85
2023-05-12T07:21:41.317Z,35.89
2023-05-12T07:22:41.333Z,36.01
2023-05-12T07:23:41.313Z,36.11
2023-05-12T07:24:42.284Z,36.73
2023-05-12T07:25:41.225Z,36.62
2023-05-12T07:26:41.154Z,36.92
2023-05-12T07:27:41.089Z,37.13
2023-05-12T07:28:41.061Z,37.36
2023-05-12T07:29:40.987Z,37.25
2023-05-12T07:30:41.562Z,37.39
2023-05-12T07:31:40.904Z,37.44
2023-05-12T07:32:40.877Z,37.54
2023-05-12T07:33:40.776Z,38.05
2023-05-12T07:34:40.722Z,38.06
2023-05-12T07:35:40.665Z,38.00
2023-05-12T07:36:40.612Z,38.16
2023-05-12T07:37:40.561Z,38.24
2023-05-12T07:38:41.160Z,38.20
2023-05-12T07:39:40.471Z,38.57
2023-05-12T07:40:40.431Z,38.56
2023-05-12T07:41:40.394Z,38.51
2023-05-12T07:42:40.373Z,38.61
2023-05-12T07:43:40.358Z,38.35
2023-05-12T07:44:40.311Z,38.38
2023-05-12T07:45:40.289Z,38.61
2023-05-12T07:46:40.272Z,38.72
2023-05-12T07:47:40.223Z,38.98
2023-05-12T07:48:40.412Z,39.00
2023-05-12T07:49:40.145Z,39.20
2023-05-12T07:50:40.158Z,39.22
2023-05-12T07:51:40.104Z,39.07
2023-05-12T07:52:40.013Z,39.13
2023-05-12T07:53:40.000Z,39.33
2023-05-12T07:54:40.032Z,39.27
2023-05-12T07:55:39.954Z,39.58
2023-05-12T07:56:39.928Z,39.56
2023-05-12T07:57:39.861Z,39.49
2023-05-12T07:58:39.874Z,39.51
2023-05-12T07:59:39.733Z,39.50
2023-05-12T08:00:39.706Z,39.62
2023-05-12T08:01:39.690Z,39.80
2023-05-12T08:02:39.700Z,39.90
2023-05-12T08:03:39.697Z,40.00
2023-05-12T08:04:39.589Z,40.06
2023-05-12T08:05:39.544Z,40.10
2023-05-12T08:06:39.545Z,40.22
2023-05-12T08:08:39.534Z,40.36
2023-05-12T08:09:39.494Z,40.49
2023-05-12T08:10:39.501Z,40.69
2023-05-12T08:11:39.455Z,40.69
2023-05-12T08:12:39.469Z,39.57
2023-05-12T08:13:39.473Z,39.27
2023-05-12T08:14:39.443Z,38.22
2023-05-12T08:15:39.394Z,38.64
2023-05-12T08:16:39.404Z,37.29
2023-05-12T08:17:39.392Z,37.12
2023-05-12T08:18:39.344Z,36.67
2023-05-12T08:19:39.266Z,36.57
2023-05-12T08:20:39.234Z,36.49
2023-05-12T08:21:39.202Z,37.16
2023-05-12T08:22:39.168Z,36.55
2023-05-12T08:23:39.145Z,36.61
2023-05-12T08:24:39.662Z,37.14
2023-05-12T08:25:39.092Z,37.28
2023-05-12T08:26:39.100Z,37.54
2023-05-12T08:27:39.070Z,36.41
2023-05-12T08:28:39.672Z,35.41
2023-05-12T08:29:39.028Z,34.96
2023-05-12T08:30:38.999Z,34.86
2023-05-12T08:31:39.213Z,34.14
2023-05-12T08:32:39.023Z,34.24
2023-05-12T08:33:39.013Z,34.78
2023-05-12T08:34:38.982Z,35.31
2023-05-12T08:35:38.998Z,36.18
2023-05-12T08:36:39.095Z,34.01
2023-05-12T08:37:38.988Z,33.66
2023-05-12T08:38:39.088Z,34.29
2023-05-12T08:39:38.976Z,34.64
2023-05-12T08:40:38.927Z,34.75
2023-05-12T08:41:38.936Z,35.16
2023-05-12T08:42:39.089Z,35.62
2023-05-12T08:43:38.890Z,35.70
2023-05-12T08:44:38.872Z,35.85
2023-05-12T08:45:38.849Z,35.86
2023-05-12T08:46:38.866Z,36.16
2023-05-12T08:47:38.836Z,36.41
2023-05-12T08:48:38.742Z,36.77
2023-05-12T08:49:38.767Z,36.71
2023-05-12T08:50:38.675Z,36.80
2023-05-12T08:51:38.619Z,36.70
2023-05-12T08:52:38.570Z,34.74
2023-05-12T08:53:38.539Z,34.27
2023-05-12T08:54:48.736Z,34.65
2023-05-12T08:55:39.465Z,34.60
2023-05-12T08:57:39.765Z,34.05
2023-05-12T08:58:41.716Z,34.87
2023-05-12T08:59:38.224Z,34.45
2023-05-12T09:00:38.212Z,34.62
2023-05-12T09:01:38.167Z,34.52
2023-05-12T09:02:51.438Z,34.19
2023-05-12T09:03:39.358Z,35.17
2023-05-12T09:04:38.199Z,34.83
2023-05-12T09:05:38.144Z,34.22
2023-05-12T09:06:38.106Z,33.68
2023-05-12T09:07:38.261Z,33.59
2023-05-12T09:08:38.084Z,34.44
2023-05-12T09:09:38.672Z,33.48
2023-05-12T09:10:38.052Z,32.94
2023-05-12T09:11:38.052Z,33.19
2023-05-12T09:12:38.044Z,32.77
2023-05-12T09:13:38.024Z,32.67
2023-05-12T09:14:38.251Z,32.75
2023-05-12T09:15:38.017Z,33.34
2023-05-12T09:16:38.069Z,32.81
2023-05-12T09:17:38.006Z,33.10
2023-05-12T09:18:38.030Z,33.11
2023-05-12T09:19:37.969Z,33.05
2023-05-12T09:20:37.964Z,33.46
2023-05-12T09:21:37.965Z,34.18
2023-05-12T09:22:37.949Z,33.69
2023-05-12T09:23:38.677Z,33.57
2023-05-12T09:24:37.947Z,33.21
2023-05-12T09:25:37.908Z,33.21
2023-05-12T09:26:37.889Z,34.15
2023-05-12T09:27:37.888Z,33.13
2023-05-12T09:28:37.892Z,33.21
2023-05-12T09:30:37.894Z,33.75
2023-05-12T09:31:37.859Z,34.14
2023-05-12T09:32:37.879Z,33.55
2023-05-12T09:33:37.792Z,32.65
2023-05-12T09:34:37.770Z,32.87
2023-05-12T09:35:38.693Z,34.17
2023-05-12T09:36:37.753Z,33.16
2023-05-12T09:37:37.728Z,33.38
2023-05-12T09:38:37.713Z,33.03
2023-05-12T09:39:37.742Z,33.00
2023-05-12T09:40:38.193Z,32.90
2023-05-12T09:41:37.659Z,32.68
2023-05-12T09:42:37.686Z,32.50
2023-05-12T09:43:38.189Z,32.51
2023-05-12T09:44:37.591Z,32.42
2023-05-12T09:45:37.641Z,33.21
2023-05-12T09:46:37.537Z,32.68
2023-05-12T09:47:37.576Z,32.84
2023-05-12T09:48:37.493Z,32.69
2023-05-12T09:49:37.465Z,32.82
2023-05-12T09:50:46.496Z,32.96
2023-05-12T09:51:38.406Z,33.30
2023-05-12T09:52:37.381Z,33.32
2023-05-12T09:53:37.316Z,33.75
2023-05-12T09:54:37.284Z,33.82
2023-05-12T09:55:37.215Z,33.98
2023-05-12T09:56:37.261Z,33.92
2023-05-12T09:57:37.156Z,34.00
2023-05-12T09:58:37.119Z,33.25
2023-05-12T09:59:37.069Z,33.63
2023-05-12T10:00:58.555Z,33.90
2023-05-12T10:01:37.983Z,33.65
2023-05-12T10:02:36.998Z,33.78
2023-05-12T10:03:36.888Z,33.73
2023-05-12T10:04:36.929Z,33.85
2023-05-12T10:05:36.780Z,33.98
2023-05-12T10:06:36.753Z,34.14
2023-05-12T10:07:36.888Z,33.97
2023-05-12T10:08:36.651Z,33.92
2023-05-12T10:09:36.580Z,33.74
2023-05-12T10:10:36.570Z,33.74
2023-05-12T10:11:36.529Z,33.71
2023-05-12T10:12:36.538Z,33.66
2023-05-12T10:13:36.516Z,33.66
2023-05-12T10:14:36.515Z,33.65
2023-05-12T10:15:36.489Z,33.64
2023-05-12T10:16:36.510Z,33.65
2023-05-12T10:17:37.229Z,33.70
2023-05-12T10:18:37.348Z,33.67
2023-05-12T10:19:36.427Z,33.70
2023-05-12T10:20:36.379Z,33.72
2023-05-12T10:21:37.206Z,33.72
2023-05-12T10:22:36.332Z,33.74
2023-05-12T10:23:37.929Z,33.74
2023-05-12T10:24:36.279Z,33.77
2023-05-12T10:25:36.238Z,33.80
2023-05-12T10:26:36.216Z,33.81
2023-05-12T10:27:36.227Z,33.87
2023-05-12T10:28:36.153Z,33.85
2023-05-12T10:29:36.217Z,33.91
2023-05-12T10:30:36.120Z,33.90
2023-05-12T10:31:36.200Z,33.96
2023-05-12T10:32:36.110Z,33.98
2023-05-12T10:33:36.054Z,34.03
2023-05-12T10:34:36.040Z,34.03
2023-05-12T10:35:36.021Z,34.03
2023-05-12T10:36:35.984Z,34.12
2023-05-12T10:37:35.980Z,34.11
2023-05-12T10:38:35.951Z,34.15
2023-05-12T10:39:35.931Z,34.11
2023-05-12T10:40:35.954Z,34.17
2023-05-12T10:41:35.865Z,34.17
2023-05-12T10:42:35.841Z,34.16
2023-05-12T10:43:35.830Z,34.15
2023-05-12T10:44:35.827Z,34.19
2023-05-12T10:45:35.794Z,34.21
2023-05-12T10:46:35.767Z,34.26
2023-05-12T10:47:36.813Z,34.26
2023-05-12T10:48:36.225Z,34.33
2023-05-12T10:49:35.698Z,34.35
2023-05-12T10:50:35.670Z,34.34
2023-05-12T10:51:35.647Z,34.31
2023-05-12T10:52:35.620Z,34.29
2023-05-12T10:53:47.607Z,34.33
2023-05-12T10:54:36.572Z,34.31
2023-05-12T10:55:35.575Z,34.31
2023-05-12T10:56:35.682Z,34.39
2023-05-12T10:57:35.674Z,34.33
2023-05-12T10:58:35.814Z,34.37
2023-05-12T10:59:35.469Z,34.48
2023-05-12T11:00:35.551Z,34.51
2023-05-12T11:01:35.861Z,34.50
2023-05-12T11:02:37.013Z,34.66
2023-05-12T11:03:36.064Z,34.70
2023-05-12T11:04:35.268Z,35.57
2023-05-12T11:05:35.155Z,35.96
2023-05-12T11:06:35.206Z,36.12
2023-05-12T11:07:35.524Z,36.79
2023-05-12T11:08:35.828Z,36.84
2023-05-12T11:09:34.930Z,36.40
2023-05-12T11:10:35.685Z,36.46
2023-05-12T11:11:35.195Z,36.71
2023-05-12T11:12:34.718Z,36.62
2023-05-12T11:13:34.659Z,36.44
2023-05-12T11:14:34.616Z,36.54
2023-05-12T11:15:34.564Z,36.56
2023-05-12T11:16:34.567Z,36.66
2023-05-12T11:17:34.524Z,36.69
2023-05-12T11:18:34.469Z,36.71
2023-05-12T11:19:34.413Z,36.77
2023-05-12T11:20:35.234Z,36.81
2023-05-12T11:21:34.297Z,36.82
2023-05-12T11:22:34.446Z,36.80
2023-05-12T11:23:34.218Z,36.81
2023-05-12T11:24:34.214Z,36.82
2023-05-12T11:25:34.235Z,36.82
2023-05-12T11:26:34.163Z,36.81
2023-05-12T11:27:34.116Z,36.77
2023-05-12T11:28:34.141Z,36.78
2023-05-12T11:29:34.085Z,36.81
2023-05-12T11:30:34.093Z,36.74
2023-05-12T11:31:34.077Z,36.74
2023-05-12T11:32:34.082Z,36.71
2023-05-12T11:33:34.022Z,36.70
2023-05-12T11:34:34.039Z,36.69
2023-05-12T11:35:33.985Z,36.74
2023-05-12T11:36:33.990Z,36.75
2023-05-12T11:37:33.962Z,36.75
2023-05-12T11:38:33.959Z,36.79
2023-05-12T11:39:33.922Z,36.72
2023-05-12T11:40:33.897Z,36.78
2023-05-12T11:41:33.873Z,36.77
2023-05-12T11:42:33.849Z,36.77
2023-05-12T11:43:33.829Z,36.72
2023-05-12T11:44:33.807Z,36.76
2023-05-12T11:45:33.804Z,36.73
2023-05-12T11:46:33.774Z,36.80
2023-05-12T11:47:33.780Z,36.76
2023-05-12T11:48:33.732Z,36.76
2023-05-12T11:49:33.733Z,36.78
2023-05-12T11:50:33.713Z,36.77
2023-05-12T11:51:33.690Z,36.82
2023-05-12T11:52:33.667Z,36.82
2023-05-12T11:53:33.646Z,36.76
2023-05-12T11:54:33.639Z,36.81
2023-05-12T11:55:33.629Z,36.78
2023-05-12T11:56:33.614Z,36.77
2023-05-12T11:57:33.629Z,36.80
2023-05-12T11:58:35.554Z,36.79
2023-05-12T11:59:33.680Z,36.78
2023-05-12T12:00:33.566Z,36.78
2023-05-12T12:01:33.580Z,36.79
2023-05-12T12:02:33.682Z,36.80
2023-05-12T12:03:33.615Z,36.86
2023-05-12T12:04:33.727Z,36.81
2023-05-12T12:05:33.519Z,36.81
2023-05-12T12:06:33.496Z,36.79
2023-05-12T12:07:33.496Z,36.85
2023-05-12T12:08:33.469Z,36.85
2023-05-12T12:09:33.465Z,36.84
2023-05-12T12:10:33.454Z,36.83
2023-05-12T12:11:33.440Z,36.81
2023-05-12T12:12:33.414Z,36.87
2023-05-12T12:13:33.428Z,36.81
2023-05-12T12:14:33.428Z,36.89
2023-05-12T12:15:33.374Z,36.84
2023-05-12T12:16:33.430Z,36.81
2023-05-12T12:17:33.380Z,36.81
2023-05-12T12:18:33.379Z,36.79
2023-05-12T12:19:33.356Z,36.81
2023-05-12T12:20:33.325Z,36.84
2023-05-12T12:21:33.310Z,36.81
2023-05-12T12:22:33.309Z,36.78
2023-05-12T12:23:40.616Z,36.80
2023-05-12T12:24:34.259Z,36.79
2023-05-12T12:25:33.197Z,36.78
2023-05-12T12:26:33.178Z,36.79
2023-05-12T12:27:33.090Z,36.78
2023-05-12T12:28:33.041Z,36.83
2023-05-12T12:29:32.997Z,36.78
2023-05-12T12:30:32.946Z,36.78
2023-05-12T12:31:32.946Z,36.82
2023-05-12T12:32:32.861Z,36.78
2023-05-12T12:33:32.790Z,36.76
2023-05-12T12:34:32.757Z,36.85
2023-05-12T12:35:32.678Z,36.82
2023-05-12T12:36:32.673Z,36.80
2023-05-12T12:37:32.658Z,36.82
2023-05-12T12:38:32.685Z,36.78
2023-05-12T12:39:32.627Z,36.81
2023-05-12T12:40:32.652Z,36.80
2023-05-12T12:41:32.610Z,36.79
2023-05-12T12:42:32.767Z,36.83
2023-05-12T12:43:32.614Z,36.83
2023-05-12T12:44:32.603Z,36.76
2023-05-12T12:45:32.583Z,36.81
2023-05-12T12:46:32.629Z,36.80
2023-05-12T12:47:32.631Z,36.79
2023-05-12T12:48:32.559Z,36.77
2023-05-12T12:49:32.538Z,36.76
2023-05-12T12:50:32.553Z,36.81
2023-05-12T12:51:44.673Z,36.81
2023-05-12T12:52:33.488Z,36.81
2023-05-12T12:53:32.431Z,36.84
2023-05-12T12:54:32.375Z,36.77
2023-05-12T12:55:32.335Z,36.80
2023-05-12T12:56:32.279Z,36.78